Terminal Aerodrome Forecast
Issued by NWS Austin/San Antonio, TX

Home | Current Version | Previous Version | Text Only | Print | Product List | Glossary On
Versions: 1 2 3 4 5 6 7 8 9 10 11 12 13
764
FTUS44 KEWX 081139
TAFSAT
TAF
KSAT 081139Z 0812/0918 01014KT P6SM SCT250
     FM081500 01015G25KT P6SM BKN250
     FM090000 32005KT P6SM SCT250=

USA.gov is the U.S. government's official web portal to all federal, state and local government web resources and services.